Terminal Aerodrome Forecast
Issued by NWS

Home | Current Version | Previous Version | Text Only | Print | Product List | Glossary Off
Versions: 1 2 3 4 5 6 7 8 9 10 11 12 13 14 15 16 17 18

000
FTUS43 KABR 222300
TAFMBG
TAF
KMBG 222340Z 2300/2324 VRB06KT P6SM FEW100 BKN250
     FM230600 30012KT P6SM OVC100
     FM231500 31017G24KT P6SM BKN150
     FM232000 32026G34KT P6SM BKN150=

USA.gov is the U.S. government's official web portal to all federal, state and local government web resources and services.